createdAt,value
2023-04-11T00:00:22.146Z,99790.72
2023-04-11T00:03:23.655Z,99748.31
2023-04-11T00:06:26.126Z,99697.78
2023-04-11T00:09:27.539Z,99679.78
2023-04-11T00:12:28.981Z,99682.69
2023-04-11T00:15:32.569Z,99624.66
2023-04-11T00:18:35.940Z,99642.81
2023-04-11T00:21:39.833Z,99696.28
2023-04-11T00:24:41.396Z,99671.84
2023-04-11T00:27:42.760Z,99677.25
2023-04-11T00:30:44.156Z,99681.81
2023-04-11T00:33:45.707Z,99687.44
2023-04-11T00:36:47.219Z,99704.59
2023-04-11T00:39:52.962Z,99714.59
2023-04-11T00:42:54.875Z,99734.44
2023-04-11T00:45:56.576Z,99740.03
2023-04-11T00:48:58.242Z,99738.19
2023-04-11T00:52:00.557Z,99743.63
2023-04-11T00:55:02.765Z,99747.34
2023-04-11T00:58:04.326Z,99760.09
2023-04-11T01:01:09.607Z,99771.78
2023-04-11T01:04:11.191Z,99773.66
2023-04-11T01:07:14.094Z,99763.63
2023-04-11T01:10:16.388Z,99773.66
2023-04-11T01:13:17.971Z,99764.66
2023-04-11T01:16:22.391Z,99765.69
2023-04-11T01:19:25.714Z,99754.81
2023-04-11T01:22:28.010Z,99743.97
2023-04-11T01:25:29.836Z,99735.81
2023-04-11T01:28:31.341Z,99730.59
2023-04-11T01:31:32.980Z,99724.31
2023-04-11T01:34:36.066Z,99723.44
2023-04-11T01:37:37.536Z,99713.47
2023-04-11T01:40:39.082Z,99717.19
2023-04-11T01:43:40.564Z,99716.34
2023-04-11T01:46:42.819Z,99710.25
2023-04-11T01:49:44.230Z,99719.22
2023-04-11T01:52:45.610Z,99723.81
2023-04-11T01:55:46.992Z,99713.78
2023-04-11T01:58:48.701Z,99710.25
2023-04-11T02:01:50.376Z,99689.56
2023-04-11T02:04:51.870Z,99682.25
2023-04-11T02:07:53.302Z,99664.31
2023-04-11T02:10:55.276Z,99650.72
2023-04-11T02:13:56.704Z,99654.28
2023-04-11T02:16:58.177Z,99668.84
2023-04-11T02:19:59.573Z,99671.78
2023-04-11T02:23:04.240Z,99664.47
2023-04-11T02:26:05.940Z,99655.50
2023-04-11T02:29:07.453Z,99649.22
2023-04-11T02:32:08.988Z,99647.50
2023-04-11T02:35:10.605Z,99654.66
2023-04-11T02:38:14.634Z,99648.34
2023-04-11T02:41:16.012Z,99647.50
2023-04-11T02:44:18.172Z,99637.69
2023-04-11T02:47:20.543Z,99633.09
2023-04-11T02:50:22.154Z,99624.97
2023-04-11T02:53:26.041Z,99626.00
2023-04-11T02:56:30.637Z,99631.44
2023-04-11T02:59:32.846Z,99624.13
2023-04-11T03:02:36.366Z,99638.53
2023-04-11T03:05:38.113Z,99640.22
2023-04-11T03:08:39.620Z,99632.94
2023-04-11T03:11:41.239Z,99636.28
2023-04-11T03:14:42.782Z,99641.56
2023-04-11T03:17:44.264Z,99640.72
2023-04-11T03:20:49.024Z,99646.81
2023-04-11T03:23:52.220Z,99652.03
2023-04-11T03:26:53.631Z,99655.41
2023-04-11T03:29:55.406Z,99657.97
2023-04-11T03:33:02.847Z,99658.59
2023-04-11T03:36:06.478Z,99667.41
2023-04-11T03:39:08.228Z,99664.31
2023-04-11T03:42:10.637Z,99668.75
2023-04-11T03:45:12.197Z,99665.84
2023-04-11T03:48:13.853Z,99671.94
2023-04-11T03:51:22.914Z,99669.88
2023-04-11T03:54:40.234Z,99674.28
2023-04-11T03:57:44.103Z,99680.56
2023-04-11T04:00:46.366Z,99671.38
2023-04-11T04:03:48.117Z,99679.38
2023-04-11T04:06:50.781Z,99681.22
2023-04-11T04:09:52.434Z,99693.94
2023-04-11T04:12:54.310Z,99720.94
2023-04-11T04:16:00.240Z,99714.66
2023-04-11T04:19:03.568Z,99721.78
2023-04-11T04:22:11.471Z,99720.94
2023-04-11T04:25:19.929Z,99718.38
2023-04-11T04:28:25.919Z,99710.25
2023-04-11T04:31:33.481Z,99710.25
2023-04-11T04:34:46.946Z,99701.25
2023-04-11T04:37:54.285Z,99693.28
2023-04-11T04:41:15.434Z,99700.41
2023-04-11T04:44:22.032Z,99696.88
2023-04-11T04:47:31.196Z,99684.28
2023-04-11T04:50:32.725Z,99698.91
2023-04-11T04:53:34.667Z,99695.16
2023-04-11T04:56:36.163Z,99699.06
2023-04-11T04:59:38.303Z,99693.66
2023-04-11T05:02:47.839Z,99694.50
2023-04-11T05:05:50.506Z,99699.91
2023-04-11T05:08:53.139Z,99710.59
2023-04-11T05:11:54.640Z,99715.88
2023-04-11T05:14:57.870Z,99707.72
2023-04-11T05:18:02.356Z,99717.38
2023-04-11T05:21:05.199Z,99714.47
2023-04-11T05:24:11.380Z,99723.28
2023-04-11T05:27:13.867Z,99727.66
2023-04-11T05:30:16.967Z,99717.69
2023-04-11T05:33:21.666Z,99724.94
2023-04-11T05:36:23.171Z,99739.41
2023-04-11T05:39:24.702Z,99735.81
2023-04-11T05:42:26.387Z,99742.13
2023-04-11T05:45:27.828Z,99743.13
2023-04-11T05:48:29.298Z,99737.69
2023-04-11T05:51:30.719Z,99751.28
2023-04-11T05:54:33.548Z,99739.56
2023-04-11T05:57:34.976Z,99755.88
2023-04-11T06:00:38.094Z,99744.16
2023-04-11T06:03:39.710Z,99745.16
2023-04-11T06:06:41.325Z,99751.47
2023-04-11T06:09:42.858Z,99757.06
2023-04-11T06:12:44.349Z,99764.38
2023-04-11T06:15:46.000Z,99753.69
2023-04-11T06:18:47.482Z,99756.59
2023-04-11T06:21:48.987Z,99767.47
2023-04-11T06:24:50.370Z,99795.63
2023-04-11T06:27:51.785Z,99786.63
2023-04-11T06:30:53.253Z,99797.66
2023-04-11T06:33:55.808Z,99805.81
2023-04-11T06:36:57.349Z,99787.84
2023-04-11T06:39:59.510Z,99777.16
2023-04-11T06:43:01.768Z,99771.06
2023-04-11T06:46:03.305Z,99783.78
2023-04-11T06:49:07.180Z,99784.81
2023-04-11T06:52:08.572Z,99783.13
2023-04-11T06:55:11.992Z,99784.16
2023-04-11T06:58:13.362Z,99797.72
2023-04-11T07:01:14.725Z,99798.75
2023-04-11T07:04:16.556Z,99789.78
2023-04-11T07:07:17.962Z,99805.19
2023-04-11T07:10:19.425Z,99814.38
2023-04-11T07:13:21.411Z,99815.41
2023-04-11T07:16:23.336Z,99808.28
2023-04-11T07:19:24.717Z,99817.25
2023-04-11T07:22:26.093Z,99821.84
2023-04-11T07:25:30.531Z,99819.31
2023-04-11T07:28:32.084Z,99820.16
2023-04-11T07:31:33.577Z,99821.16
2023-04-11T07:34:34.947Z,99839.34
2023-04-11T07:37:36.336Z,99833.06
2023-04-11T07:40:37.900Z,99848.50
2023-04-11T07:43:39.525Z,99843.09
2023-04-11T07:46:40.903Z,99845.81
2023-04-11T07:49:42.268Z,99852.22
2023-04-11T07:52:43.616Z,99856.81
2023-04-11T07:55:44.966Z,99863.09
2023-04-11T07:58:46.337Z,99852.44
2023-04-11T08:01:47.804Z,99863.28
2023-04-11T08:04:49.446Z,99850.56
2023-04-11T08:07:51.055Z,99865.16
2023-04-11T08:10:52.445Z,99866.00
2023-04-11T08:13:53.921Z,99876.84
2023-04-11T08:16:55.505Z,99865.16
2023-04-11T08:19:57.394Z,99862.44
2023-04-11T08:22:59.340Z,99879.56
2023-04-11T08:26:00.788Z,99890.44
2023-04-11T08:29:03.346Z,99887.72
2023-04-11T08:32:04.901Z,99886.69
2023-04-11T08:35:06.418Z,99886.00
2023-04-11T08:38:08.131Z,99879.56
2023-04-11T08:41:09.542Z,99892.31
2023-04-11T08:44:11.954Z,99887.03
2023-04-11T08:47:15.525Z,99890.59
2023-04-11T08:50:17.292Z,99898.06
2023-04-11T08:53:18.921Z,99892.47
2023-04-11T08:56:20.423Z,99895.34
2023-04-11T08:59:24.816Z,99894.34
2023-04-11T09:02:27.402Z,99893.50
2023-04-11T09:05:32.510Z,99885.34
2023-04-11T09:08:37.859Z,99885.34
2023-04-11T09:11:52.785Z,99882.66
2023-04-11T09:14:54.257Z,99882.66
2023-04-11T09:17:58.925Z,99886.38
2023-04-11T09:21:06.354Z,99879.06
2023-04-11T09:24:14.485Z,99889.91
2023-04-11T09:27:16.899Z,99880.09
2023-04-11T09:30:22.536Z,99882.81
2023-04-11T09:33:25.527Z,99884.69
2023-04-11T09:36:30.541Z,99889.06
2023-04-11T09:39:32.508Z,99898.25
2023-04-11T09:42:34.586Z,99898.25
2023-04-11T09:45:47.731Z,99897.22
2023-04-11T09:48:54.653Z,99910.78
2023-04-11T09:51:57.582Z,99912.50
2023-04-11T09:54:59.659Z,99929.63
2023-04-11T09:58:01.219Z,99946.06
2023-04-11T10:01:03.851Z,99944.41
2023-04-11T10:04:05.370Z,99959.84
2023-04-11T10:07:14.124Z,99947.28
2023-04-11T10:10:20.264Z,99947.28
2023-04-11T10:13:40.427Z,99939.31
2023-04-11T10:17:01.756Z,99928.47
2023-04-11T10:20:23.072Z,99922.16
2023-04-11T10:23:24.437Z,99922.16
2023-04-11T10:26:45.786Z,99915.91
2023-04-11T10:29:49.932Z,99918.59
2023-04-11T10:33:11.481Z,99931.19
2023-04-11T10:36:13.071Z,99922.00
2023-04-11T10:39:15.819Z,99910.31
2023-04-11T10:42:26.452Z,99919.44
2023-04-11T10:45:31.077Z,99931.19
2023-04-11T10:48:32.463Z,99927.59
2023-04-11T10:51:34.345Z,99941.16
2023-04-11T10:54:35.729Z,99924.03
2023-04-11T10:57:57.057Z,99937.59
2023-04-11T11:01:00.078Z,99927.78
2023-04-11T11:04:02.410Z,99932.38
2023-04-11T11:07:04.808Z,99935.94
2023-04-11T11:10:06.664Z,99941.34
2023-04-11T11:13:08.541Z,99941.53
2023-04-11T11:16:13.181Z,99937.13
2023-04-11T11:19:14.557Z,99942.56
2023-04-11T11:22:18.453Z,99934.41
2023-04-11T11:25:19.942Z,99945.25
2023-04-11T11:28:21.466Z,99941.72
2023-04-11T11:31:33.956Z,99955.28
2023-04-11T11:34:35.995Z,99923.72
2023-04-11T11:37:37.648Z,99942.72
2023-04-11T11:40:39.150Z,99944.59
2023-04-11T11:43:40.621Z,99941.88
2023-04-11T11:46:59.996Z,99951.69
2023-04-11T11:50:02.574Z,99948.97
2023-04-11T11:53:14.174Z,99950.84
2023-04-11T11:56:16.194Z,99957.13
2023-04-11T11:59:26.462Z,99964.25
2023-04-11T12:02:28.286Z,99954.41
2023-04-11T12:05:31.340Z,99952.56
2023-04-11T12:08:33.377Z,99955.09
2023-04-11T12:11:41.993Z,99949.66
2023-04-11T12:14:53.530Z,99960.50
2023-04-11T12:17:55.458Z,99957.63
2023-04-11T12:20:58.458Z,99954.72
2023-04-11T12:23:59.945Z,99966.28
2023-04-11T12:27:06.817Z,99962.56
2023-04-11T12:30:09.704Z,99966.78
2023-04-11T12:33:11.180Z,99973.91
2023-04-11T12:36:12.604Z,99977.28
2023-04-11T12:39:13.954Z,99968.94
2023-04-11T12:45:18.154Z,99962.53
2023-04-11T12:48:19.602Z,99964.19
2023-04-11T12:51:20.953Z,99973.88
2023-04-11T12:54:22.406Z,99995.59
2023-04-11T12:57:23.973Z,99990.00
2023-04-11T13:00:25.452Z,99997.09
2023-04-11T13:03:27.191Z,99995.22
2023-04-11T13:06:29.572Z,100006.97
2023-04-11T13:09:33.701Z,100026.81
2023-04-11T13:12:39.796Z,100040.53
2023-04-11T13:15:41.448Z,100063.09
2023-04-11T13:18:42.915Z,100077.72
2023-04-11T13:21:44.354Z,100063.09
2023-04-11T13:24:45.760Z,100061.06
2023-04-11T13:27:47.256Z,100055.63
2023-04-11T13:30:48.632Z,100063.63
2023-04-11T13:33:50.056Z,100059.03
2023-04-11T13:36:51.456Z,100049.22
2023-04-11T13:39:52.943Z,100041.06
2023-04-11T13:42:54.827Z,100037.47
2023-04-11T13:45:56.597Z,100046.50
2023-04-11T13:48:58.331Z,100052.75
2023-04-11T13:52:00.477Z,100057.16
2023-04-11T13:55:01.859Z,100062.44
2023-04-11T13:58:03.280Z,100059.53
2023-04-11T14:01:04.940Z,100063.13
2023-04-11T14:04:06.913Z,100075.66
2023-04-11T14:07:08.373Z,100102.81
2023-04-11T14:10:09.997Z,100100.09
2023-04-11T14:13:11.765Z,100103.66
2023-04-11T14:16:13.357Z,100101.78
2023-04-11T14:19:14.999Z,100094.50
2023-04-11T14:22:16.530Z,100095.16
2023-04-11T14:25:18.191Z,100083.44
2023-04-11T14:28:19.623Z,100069.03
2023-04-11T14:31:21.078Z,100081.41
2023-04-11T14:34:22.704Z,100078.69
2023-04-11T14:37:24.242Z,100087.53
2023-04-11T14:40:25.670Z,100096.50
2023-04-11T14:43:27.055Z,100107.22
2023-04-11T14:46:28.784Z,100117.22
2023-04-11T14:49:30.363Z,100110.59
2023-04-11T14:52:31.762Z,100087.84
2023-04-11T14:55:33.191Z,100098.53
2023-04-11T14:58:34.653Z,100109.22
2023-04-11T15:01:37.081Z,100105.47
2023-04-11T15:04:38.575Z,100104.13
2023-04-11T15:07:40.187Z,100108.53
2023-04-11T15:10:41.621Z,100112.97
2023-04-11T15:13:43.055Z,100107.31
2023-04-11T15:16:44.441Z,100106.13
2023-04-11T15:19:46.121Z,100107.84
2023-04-11T15:22:47.699Z,100108.56
2023-04-11T15:26:08.472Z,100103.78
2023-04-11T15:29:13.751Z,100109.88
2023-04-11T15:32:15.141Z,100110.72
2023-04-11T15:35:16.518Z,100108.69
2023-04-11T15:38:17.890Z,100121.91
2023-04-11T15:41:19.391Z,100120.72
2023-04-11T15:44:20.745Z,100129.75
2023-04-11T15:47:22.597Z,100127.03
2023-04-11T15:50:24.068Z,100138.78
2023-04-11T15:53:25.557Z,100134.34
2023-04-11T15:56:28.175Z,100131.81
2023-04-11T15:59:29.578Z,100135.72
2023-04-11T16:02:31.241Z,100135.75
2023-04-11T16:05:32.962Z,100140.31
2023-04-11T16:08:34.458Z,100129.81
2023-04-11T16:11:38.505Z,100124.19
2023-04-11T16:14:39.993Z,100124.88
2023-04-11T16:17:41.489Z,100129.81
2023-04-11T16:20:42.885Z,100129.47
2023-04-11T16:23:44.326Z,100121.84
2023-04-11T16:26:46.002Z,100124.03
2023-04-11T16:29:47.497Z,100125.88
2023-04-11T16:32:48.974Z,100123.72
2023-04-11T16:35:51.023Z,100119.63
2023-04-11T16:38:52.759Z,100123.53
2023-04-11T16:41:55.924Z,100126.56
2023-04-11T16:44:57.964Z,100129.63
2023-04-11T16:47:59.468Z,100129.97
2023-04-11T16:51:00.931Z,100130.50
2023-04-11T16:54:03.841Z,100131.00
2023-04-11T16:57:05.342Z,100131.50
2023-04-11T17:00:19.662Z,100124.91
2023-04-11T17:03:21.811Z,100130.13
2023-04-11T17:06:23.716Z,100130.81
2023-04-11T17:09:25.201Z,100134.22
2023-04-11T17:12:27.061Z,100134.03
2023-04-11T17:15:28.570Z,100135.75
2023-04-11T17:18:30.059Z,100133.72
2023-04-11T17:21:31.852Z,100138.09
2023-04-11T17:24:33.220Z,100142.50
2023-04-11T17:27:34.605Z,100146.09
2023-04-11T17:30:36.392Z,100145.91
2023-04-11T17:33:37.825Z,100144.91
2023-04-11T17:36:42.748Z,100142.19
2023-04-11T17:39:46.267Z,100146.59
2023-04-11T17:42:47.663Z,100146.59
2023-04-11T17:45:50.087Z,100140.31
2023-04-11T17:48:51.537Z,100150.16
2023-04-11T17:51:59.170Z,100152.69
2023-04-11T17:55:00.973Z,100154.56
2023-04-11T17:58:03.466Z,100151.00
2023-04-11T18:01:08.644Z,100158.13
2023-04-11T18:04:12.042Z,100158.13
2023-04-11T18:07:13.464Z,100157.28
2023-04-11T18:10:15.934Z,100163.72
2023-04-11T18:13:17.286Z,100158.47
2023-04-11T18:16:18.806Z,100160.31
2023-04-11T18:19:20.296Z,100168.47
2023-04-11T18:22:21.661Z,100165.75
2023-04-11T18:25:23.452Z,100173.91
2023-04-11T18:28:24.851Z,100168.66
2023-04-11T18:31:26.222Z,100166.78
2023-04-11T18:34:27.721Z,100171.38
2023-04-11T18:37:29.271Z,100173.25
2023-04-11T18:40:31.416Z,100174.25
2023-04-11T18:43:33.321Z,100175.09
2023-04-11T18:46:35.520Z,100172.38
2023-04-11T18:49:37.030Z,100171.53
2023-04-11T18:52:38.489Z,100175.09
2023-04-11T18:55:40.690Z,100174.25
2023-04-11T18:58:45.779Z,100179.69
2023-04-11T19:01:48.550Z,100178.84
2023-04-11T19:04:50.801Z,100176.13
2023-04-11T19:07:52.761Z,100173.41
2023-04-11T19:10:55.718Z,100176.13
2023-04-11T19:13:59.921Z,100173.41
2023-04-11T19:17:02.249Z,100176.13
2023-04-11T19:20:07.133Z,100186.16
2023-04-11T19:23:08.638Z,100189.84
2023-04-11T19:26:10.000Z,100187.13
2023-04-11T19:29:11.577Z,100189.00
2023-04-11T19:32:13.165Z,100187.13
2023-04-11T19:35:15.001Z,100184.44
2023-04-11T19:38:16.429Z,100184.44
2023-04-11T19:41:19.305Z,100188.00
2023-04-11T19:44:21.139Z,100187.13
2023-04-11T19:47:22.543Z,100172.72
2023-04-11T19:50:23.906Z,100176.13
2023-04-11T19:53:25.624Z,100178.84
2023-04-11T19:56:27.185Z,100169.84
2023-04-11T19:59:28.571Z,100167.97
2023-04-11T20:02:30.051Z,100160.88
2023-04-11T20:05:32.004Z,100155.44
2023-04-11T20:08:33.543Z,100149.13
2023-04-11T20:11:36.507Z,100147.28
2023-04-11T20:14:38.067Z,100148.13
2023-04-11T20:17:39.816Z,100139.97
2023-04-11T20:20:41.375Z,100131.66
2023-04-11T20:23:42.852Z,100126.22
2023-04-11T20:26:44.324Z,100126.06
2023-04-11T20:29:45.762Z,100123.34
2023-04-11T20:32:47.241Z,100121.47
2023-04-11T20:35:48.752Z,100122.31
2023-04-11T20:38:50.191Z,100114.84
2023-04-11T20:41:52.275Z,100115.88
2023-04-11T20:45:03.653Z,100108.72
2023-04-11T20:48:06.335Z,100107.72
2023-04-11T20:51:08.621Z,100108.72
2023-04-11T20:54:10.380Z,100106.88
2023-04-11T20:57:11.807Z,100105.19
2023-04-11T21:00:17.473Z,100111.44
2023-04-11T21:03:19.092Z,100112.47
2023-04-11T21:06:21.055Z,100109.75
2023-04-11T21:09:22.526Z,100107.03
2023-04-11T21:12:23.918Z,100105.38
2023-04-11T21:15:25.429Z,100097.22
2023-04-11T21:18:26.882Z,100094.66
2023-04-11T21:21:28.345Z,100093.81
2023-04-11T21:24:33.446Z,100093.13
2023-04-11T21:27:34.960Z,100089.75
2023-04-11T21:30:36.405Z,100097.19
2023-04-11T21:33:37.794Z,100098.91
2023-04-11T21:36:39.180Z,100089.25
2023-04-11T21:39:40.577Z,100090.09
2023-04-11T21:42:41.959Z,100083.97
2023-04-11T21:45:43.396Z,100077.72
2023-04-11T21:48:44.885Z,100071.44
2023-04-11T21:51:46.341Z,100067.88
2023-04-11T21:54:47.739Z,100072.44
2023-04-11T21:57:49.199Z,100069.91
2023-04-11T22:00:50.647Z,100064.66
2023-04-11T22:03:52.276Z,100058.38
2023-04-11T22:06:54.055Z,100048.56
2023-04-11T22:10:03.801Z,100046.84
2023-04-11T22:13:05.187Z,100047.03
2023-04-11T22:16:07.036Z,100045.31
2023-04-11T22:19:08.865Z,100040.06
2023-04-11T22:22:10.356Z,100043.63
2023-04-11T22:25:11.875Z,100042.09
2023-04-11T22:28:15.599Z,100042.09
2023-04-11T22:31:17.071Z,100036.84
2023-04-11T22:34:18.482Z,100038.72
2023-04-11T22:37:19.899Z,100033.44
2023-04-11T22:40:22.327Z,100024.66
2023-04-11T22:43:23.959Z,100017.34
2023-04-11T22:46:25.542Z,100014.78
2023-04-11T22:49:27.445Z,100013.94
2023-04-11T22:52:30.080Z,100015.00
2023-04-11T22:55:34.177Z,100011.41
2023-04-11T22:58:36.122Z,100010.56
2023-04-11T23:01:37.666Z,99996.16
2023-04-11T23:04:39.181Z,99975.47
2023-04-11T23:07:40.623Z,99980.91
2023-04-11T23:10:42.546Z,99977.31
2023-04-11T23:13:44.090Z,99993.78
2023-04-11T23:16:45.559Z,99974.09
2023-04-11T23:19:47.274Z,99977.66
2023-04-11T23:22:48.681Z,99967.84
2023-04-11T23:25:50.205Z,99955.28
2023-04-11T23:28:55.377Z,99953.59
2023-04-11T23:31:57.243Z,99959.03
2023-04-11T23:34:58.610Z,99949.19
2023-04-11T23:38:01.803Z,99938.34
2023-04-11T23:41:05.062Z,99930.38
2023-04-11T23:44:06.839Z,99928.50
2023-04-11T23:47:08.213Z,99929.53
2023-04-11T23:50:10.372Z,99922.22
2023-04-11T23:53:11.779Z,99918.69
2023-04-11T23:56:13.643Z,99917.84
2023-04-11T23:59:15.068Z,99912.22
